sensor_id;sensor_type;location;lat;lon;timestamp;P1;durP1;ratioP1;P2;durP2;ratioP2
13102;SDS011;52970;46.752;17.108;2023-07-24T00:01:11;7.50;;;4.90;;
13102;SDS011;52970;46.752;17.108;2023-07-24T00:03:37;6.00;;;5.05;;
13102;SDS011;52970;46.752;17.108;2023-07-24T00:06:02;7.53;;;5.47;;
13102;SDS011;52970;46.752;17.108;2023-07-24T00:08:27;8.10;;;5.65;;
13102;SDS011;52970;46.752;17.108;2023-07-24T00:10:52;7.35;;;5.55;;
13102;SDS011;52970;46.752;17.108;2023-07-24T00:13:18;7.45;;;6.22;;
13102;SDS011;52970;46.752;17.108;2023-07-24T00:15:43;6.32;;;5.72;;
13102;SDS011;52970;46.752;17.108;2023-07-24T00:18:08;7.10;;;6.10;;
13102;SDS011;52970;46.752;17.108;2023-07-24T00:20:34;9.57;;;7.28;;
13102;SDS011;52970;46.752;17.108;2023-07-24T00:22:59;6.70;;;5.90;;
13102;SDS011;52970;46.752;17.108;2023-07-24T00:25:24;7.32;;;6.13;;
13102;SDS011;52970;46.752;17.108;2023-07-24T00:27:49;6.93;;;6.03;;
13102;SDS011;52970;46.752;17.108;2023-07-24T00:30:15;6.93;;;6.22;;
13102;SDS011;52970;46.752;17.108;2023-07-24T00:32:40;6.60;;;5.90;;
13102;SDS011;52970;46.752;17.108;2023-07-24T00:35:05;10.75;;;7.20;;
13102;SDS011;52970;46.752;17.108;2023-07-24T00:37:31;7.05;;;6.10;;
13102;SDS011;52970;46.752;17.108;2023-07-24T00:39:56;9.80;;;5.95;;
13102;SDS011;52970;46.752;17.108;2023-07-24T00:42:21;10.73;;;6.93;;
13102;SDS011;52970;46.752;17.108;2023-07-24T00:44:47;7.57;;;6.22;;
13102;SDS011;52970;46.752;17.108;2023-07-24T00:47:13;6.25;;;5.63;;
13102;SDS011;52970;46.752;17.108;2023-07-24T00:49:38;9.48;;;6.70;;
13102;SDS011;52970;46.752;17.108;2023-07-24T00:52:04;7.13;;;6.15;;
13102;SDS011;52970;46.752;17.108;2023-07-24T00:54:30;6.05;;;5.45;;
13102;SDS011;52970;46.752;17.108;2023-07-24T00:56:57;7.35;;;5.80;;
13102;SDS011;52970;46.752;17.108;2023-07-24T00:59:22;7.90;;;6.95;;
13102;SDS011;52970;46.752;17.108;2023-07-24T01:01:48;6.18;;;5.57;;
13102;SDS011;52970;46.752;17.108;2023-07-24T01:04:13;8.05;;;6.28;;
13102;SDS011;52970;46.752;17.108;2023-07-24T01:06:39;6.03;;;5.38;;
13102;SDS011;52970;46.752;17.108;2023-07-24T01:09:04;8.23;;;6.00;;
13102;SDS011;52970;46.752;17.108;2023-07-24T01:11:36;7.30;;;5.07;;
13102;SDS011;52970;46.752;17.108;2023-07-24T01:14:04;8.30;;;6.72;;
13102;SDS011;52970;46.752;17.108;2023-07-24T01:16:39;7.22;;;6.43;;
13102;SDS011;52970;46.752;17.108;2023-07-24T01:19:12;6.75;;;5.75;;
13102;SDS011;52970;46.752;17.108;2023-07-24T01:22:02;6.55;;;5.25;;
13102;SDS011;52970;46.752;17.108;2023-07-24T01:27:24;6.10;;;5.40;;
13102;SDS011;52970;46.752;17.108;2023-07-24T01:29:49;8.02;;;6.18;;
13102;SDS011;52970;46.752;17.108;2023-07-24T01:32:14;5.00;;;4.50;;
13102;SDS011;52970;46.752;17.108;2023-07-24T01:34:40;8.57;;;5.38;;
13102;SDS011;52970;46.752;17.108;2023-07-24T01:37:05;6.78;;;6.03;;
13102;SDS011;52970;46.752;17.108;2023-07-24T01:39:30;7.75;;;5.82;;
13102;SDS011;52970;46.752;17.108;2023-07-24T01:41:55;7.13;;;5.93;;
13102;SDS011;52970;46.752;17.108;2023-07-24T01:44:21;6.47;;;5.82;;
13102;SDS011;52970;46.752;17.108;2023-07-24T01:46:46;14.88;;;6.53;;
13102;SDS011;52970;46.752;17.108;2023-07-24T01:49:11;6.53;;;5.90;;
13102;SDS011;52970;46.752;17.108;2023-07-24T01:51:37;6.70;;;5.75;;
13102;SDS011;52970;46.752;17.108;2023-07-24T01:54:02;7.67;;;6.10;;
13102;SDS011;52970;46.752;17.108;2023-07-24T01:56:27;9.00;;;5.72;;
13102;SDS011;52970;46.752;17.108;2023-07-24T01:58:52;6.00;;;5.40;;
13102;SDS011;52970;46.752;17.108;2023-07-24T02:01:18;6.28;;;5.68;;
13102;SDS011;52970;46.752;17.108;2023-07-24T02:03:43;6.30;;;5.63;;
13102;SDS011;52970;46.752;17.108;2023-07-24T02:06:08;6.57;;;5.63;;
13102;SDS011;52970;46.752;17.108;2023-07-24T02:08:34;6.93;;;5.72;;
13102;SDS011;52970;46.752;17.108;2023-07-24T02:10:59;7.13;;;6.00;;
13102;SDS011;52970;46.752;17.108;2023-07-24T02:13:24;7.35;;;5.88;;
13102;SDS011;52970;46.752;17.108;2023-07-24T02:15:49;6.67;;;5.70;;
13102;SDS011;52970;46.752;17.108;2023-07-24T02:18:15;8.18;;;6.07;;
13102;SDS011;52970;46.752;17.108;2023-07-24T02:20:40;8.02;;;6.40;;
13102;SDS011;52970;46.752;17.108;2023-07-24T02:23:06;7.43;;;6.00;;
13102;SDS011;52970;46.752;17.108;2023-07-24T02:25:31;7.05;;;5.60;;
13102;SDS011;52970;46.752;17.108;2023-07-24T02:27:57;5.63;;;5.13;;
13102;SDS011;52970;46.752;17.108;2023-07-24T02:30:22;6.28;;;5.43;;
13102;SDS011;52970;46.752;17.108;2023-07-24T02:32:47;6.65;;;5.70;;
13102;SDS011;52970;46.752;17.108;2023-07-24T02:35:12;7.07;;;5.43;;
13102;SDS011;52970;46.752;17.108;2023-07-24T02:37:38;7.53;;;6.03;;
13102;SDS011;52970;46.752;17.108;2023-07-24T02:40:03;9.25;;;6.28;;
13102;SDS011;52970;46.752;17.108;2023-07-24T02:42:28;9.18;;;6.32;;
13102;SDS011;52970;46.752;17.108;2023-07-24T02:44:54;7.60;;;5.90;;
13102;SDS011;52970;46.752;17.108;2023-07-24T02:47:19;6.88;;;6.10;;
13102;SDS011;52970;46.752;17.108;2023-07-24T02:49:44;6.88;;;5.35;;
13102;SDS011;52970;46.752;17.108;2023-07-24T02:52:09;6.93;;;5.53;;
13102;SDS011;52970;46.752;17.108;2023-07-24T02:54:35;8.23;;;6.32;;
13102;SDS011;52970;46.752;17.108;2023-07-24T02:57:00;9.18;;;6.43;;
13102;SDS011;52970;46.752;17.108;2023-07-24T02:59:25;6.70;;;6.00;;
13102;SDS011;52970;46.752;17.108;2023-07-24T03:01:50;8.63;;;4.78;;
13102;SDS011;52970;46.752;17.108;2023-07-24T03:04:16;4.22;;;3.83;;
13102;SDS011;52970;46.752;17.108;2023-07-24T03:06:41;6.63;;;3.92;;
13102;SDS011;52970;46.752;17.108;2023-07-24T03:09:06;5.72;;;4.63;;
13102;SDS011;52970;46.752;17.108;2023-07-24T03:11:32;6.63;;;5.22;;
13102;SDS011;52970;46.752;17.108;2023-07-24T03:13:57;5.40;;;4.90;;
13102;SDS011;52970;46.752;17.108;2023-07-24T03:16:22;6.68;;;4.78;;
13102;SDS011;52970;46.752;17.108;2023-07-24T03:18:47;4.18;;;3.85;;
13102;SDS011;52970;46.752;17.108;2023-07-24T03:21:12;5.18;;;3.78;;
13102;SDS011;52970;46.752;17.108;2023-07-24T03:23:38;4.35;;;3.78;;
13102;SDS011;52970;46.752;17.108;2023-07-24T03:26:03;3.30;;;3.10;;
13102;SDS011;52970;46.752;17.108;2023-07-24T03:28:28;3.03;;;2.40;;
13102;SDS011;52970;46.752;17.108;2023-07-24T03:30:54;3.80;;;2.90;;
13102;SDS011;52970;46.752;17.108;2023-07-24T03:33:20;2.88;;;2.60;;
13102;SDS011;52970;46.752;17.108;2023-07-24T03:35:45;3.63;;;2.60;;
13102;SDS011;52970;46.752;17.108;2023-07-24T03:38:10;2.60;;;2.40;;
13102;SDS011;52970;46.752;17.108;2023-07-24T03:40:35;2.40;;;2.30;;
13102;SDS011;52970;46.752;17.108;2023-07-24T03:43:01;3.22;;;2.92;;
13102;SDS011;52970;46.752;17.108;2023-07-24T03:45:26;3.85;;;3.42;;
13102;SDS011;52970;46.752;17.108;2023-07-24T03:47:51;4.60;;;4.20;;
13102;SDS011;52970;46.752;17.108;2023-07-24T03:50:16;5.25;;;4.75;;
13102;SDS011;52970;46.752;17.108;2023-07-24T03:52:42;7.95;;;6.85;;
13102;SDS011;52970;46.752;17.108;2023-07-24T03:55:07;7.68;;;6.65;;
13102;SDS011;52970;46.752;17.108;2023-07-24T03:57:33;7.25;;;6.00;;
13102;SDS011;52970;46.752;17.108;2023-07-24T03:59:58;7.15;;;5.32;;
13102;SDS011;52970;46.752;17.108;2023-07-24T04:02:23;7.88;;;5.45;;
13102;SDS011;52970;46.752;17.108;2023-07-24T04:04:48;7.90;;;7.10;;
13102;SDS011;52970;46.752;17.108;2023-07-24T04:07:14;6.38;;;5.65;;
13102;SDS011;52970;46.752;17.108;2023-07-24T04:09:39;6.05;;;5.55;;
13102;SDS011;52970;46.752;17.108;2023-07-24T04:12:05;5.40;;;4.90;;
13102;SDS011;52970;46.752;17.108;2023-07-24T04:14:30;5.65;;;5.15;;
13102;SDS011;52970;46.752;17.108;2023-07-24T04:16:55;6.30;;;5.68;;
13102;SDS011;52970;46.752;17.108;2023-07-24T04:19:21;5.60;;;5.10;;
13102;SDS011;52970;46.752;17.108;2023-07-24T04:21:46;7.57;;;6.17;;
13102;SDS011;52970;46.752;17.108;2023-07-24T04:24:11;6.25;;;5.10;;
13102;SDS011;52970;46.752;17.108;2023-07-24T04:26:36;5.40;;;4.78;;
13102;SDS011;52970;46.752;17.108;2023-07-24T04:29:02;8.35;;;4.93;;
13102;SDS011;52970;46.752;17.108;2023-07-24T04:31:27;7.22;;;4.75;;
13102;SDS011;52970;46.752;17.108;2023-07-24T04:33:52;4.80;;;4.40;;
13102;SDS011;52970;46.752;17.108;2023-07-24T04:36:17;5.80;;;5.25;;
13102;SDS011;52970;46.752;17.108;2023-07-24T04:38:43;4.72;;;4.32;;
13102;SDS011;52970;46.752;17.108;2023-07-24T04:41:08;4.13;;;3.83;;
13102;SDS011;52970;46.752;17.108;2023-07-24T04:43:33;5.80;;;5.25;;
13102;SDS011;52970;46.752;17.108;2023-07-24T04:45:59;6.15;;;5.38;;
13102;SDS011;52970;46.752;17.108;2023-07-24T04:48:24;4.68;;;4.28;;
13102;SDS011;52970;46.752;17.108;2023-07-24T04:50:53;7.85;;;7.15;;
13102;SDS011;52970;46.752;17.108;2023-07-24T04:53:18;6.20;;;5.70;;
13102;SDS011;52970;46.752;17.108;2023-07-24T04:55:45;5.75;;;5.25;;
13102;SDS011;52970;46.752;17.108;2023-07-24T04:58:10;8.02;;;6.78;;
13102;SDS011;52970;46.752;17.108;2023-07-24T05:00:36;6.55;;;5.95;;
13102;SDS011;52970;46.752;17.108;2023-07-24T05:03:01;5.97;;;5.38;;
13102;SDS011;52970;46.752;17.108;2023-07-24T05:05:26;6.50;;;5.90;;
13102;SDS011;52970;46.752;17.108;2023-07-24T05:07:51;7.32;;;6.63;;
13102;SDS011;52970;46.752;17.108;2023-07-24T05:10:16;6.13;;;5.45;;
13102;SDS011;52970;46.752;17.108;2023-07-24T05:12:42;5.47;;;4.97;;
13102;SDS011;52970;46.752;17.108;2023-07-24T05:15:07;7.25;;;6.57;;
13102;SDS011;52970;46.752;17.108;2023-07-24T05:17:33;7.22;;;6.63;;
13102;SDS011;52970;46.752;17.108;2023-07-24T05:19:58;7.28;;;6.32;;
13102;SDS011;52970;46.752;17.108;2023-07-24T05:22:23;7.60;;;6.47;;
13102;SDS011;52970;46.752;17.108;2023-07-24T05:24:48;11.13;;;9.75;;
13102;SDS011;52970;46.752;17.108;2023-07-24T05:27:13;10.02;;;9.02;;
13102;SDS011;52970;46.752;17.108;2023-07-24T05:29:41;8.18;;;7.30;;
13102;SDS011;52970;46.752;17.108;2023-07-24T05:32:06;10.43;;;8.98;;
13102;SDS011;52970;46.752;17.108;2023-07-24T05:34:31;8.55;;;7.38;;
13102;SDS011;52970;46.752;17.108;2023-07-24T05:36:57;9.77;;;8.75;;
13102;SDS011;52970;46.752;17.108;2023-07-24T05:39:22;11.57;;;9.75;;
13102;SDS011;52970;46.752;17.108;2023-07-24T05:41:48;11.73;;;10.50;;
13102;SDS011;52970;46.752;17.108;2023-07-24T05:44:13;12.82;;;10.10;;
13102;SDS011;52970;46.752;17.108;2023-07-24T05:46:39;17.08;;;11.30;;
13102;SDS011;52970;46.752;17.108;2023-07-24T05:49:04;10.98;;;9.70;;
13102;SDS011;52970;46.752;17.108;2023-07-24T05:51:29;12.45;;;10.05;;
13102;SDS011;52970;46.752;17.108;2023-07-24T05:53:54;12.57;;;8.73;;
13102;SDS011;52970;46.752;17.108;2023-07-24T05:56:20;11.77;;;9.65;;
13102;SDS011;52970;46.752;17.108;2023-07-24T05:58:45;10.98;;;8.18;;
13102;SDS011;52970;46.752;17.108;2023-07-24T06:01:10;12.07;;;8.88;;
13102;SDS011;52970;46.752;17.108;2023-07-24T06:03:36;11.02;;;9.40;;
13102;SDS011;52970;46.752;17.108;2023-07-24T06:06:01;11.48;;;9.35;;
13102;SDS011;52970;46.752;17.108;2023-07-24T06:08:26;12.55;;;10.00;;
13102;SDS011;52970;46.752;17.108;2023-07-24T06:10:52;12.77;;;9.20;;
13102;SDS011;52970;46.752;17.108;2023-07-24T06:13:17;9.45;;;8.45;;
13102;SDS011;52970;46.752;17.108;2023-07-24T06:15:42;9.32;;;8.35;;
13102;SDS011;52970;46.752;17.108;2023-07-24T06:18:08;11.07;;;8.38;;
13102;SDS011;52970;46.752;17.108;2023-07-24T06:20:33;10.70;;;8.52;;
13102;SDS011;52970;46.752;17.108;2023-07-24T06:22:59;9.82;;;7.93;;
13102;SDS011;52970;46.752;17.108;2023-07-24T06:25:24;10.70;;;8.85;;
13102;SDS011;52970;46.752;17.108;2023-07-24T06:27:49;11.50;;;9.43;;
13102;SDS011;52970;46.752;17.108;2023-07-24T06:30:14;9.85;;;8.80;;
13102;SDS011;52970;46.752;17.108;2023-07-24T06:32:40;11.98;;;9.13;;
13102;SDS011;52970;46.752;17.108;2023-07-24T06:35:05;9.18;;;7.82;;
13102;SDS011;52970;46.752;17.108;2023-07-24T06:37:30;9.05;;;8.10;;
13102;SDS011;52970;46.752;17.108;2023-07-24T06:39:56;8.43;;;7.63;;
13102;SDS011;52970;46.752;17.108;2023-07-24T06:42:21;9.18;;;7.53;;
13102;SDS011;52970;46.752;17.108;2023-07-24T06:44:46;9.15;;;7.75;;
13102;SDS011;52970;46.752;17.108;2023-07-24T06:47:11;9.07;;;7.60;;
13102;SDS011;52970;46.752;17.108;2023-07-24T06:49:37;8.32;;;7.18;;
13102;SDS011;52970;46.752;17.108;2023-07-24T06:52:02;9.10;;;7.05;;
13102;SDS011;52970;46.752;17.108;2023-07-24T06:54:27;8.80;;;7.20;;
13102;SDS011;52970;46.752;17.108;2023-07-24T06:56:52;9.10;;;6.75;;
13102;SDS011;52970;46.752;17.108;2023-07-24T06:59:18;9.53;;;7.37;;
13102;SDS011;52970;46.752;17.108;2023-07-24T07:01:43;7.05;;;6.35;;
13102;SDS011;52970;46.752;17.108;2023-07-24T07:04:08;9.90;;;7.20;;
13102;SDS011;52970;46.752;17.108;2023-07-24T07:06:33;8.07;;;7.27;;
13102;SDS011;52970;46.752;17.108;2023-07-24T07:08:58;7.73;;;6.83;;
13102;SDS011;52970;46.752;17.108;2023-07-24T07:11:24;8.88;;;6.68;;
13102;SDS011;52970;46.752;17.108;2023-07-24T07:13:49;9.25;;;7.20;;
13102;SDS011;52970;46.752;17.108;2023-07-24T07:16:14;7.40;;;6.50;;
13102;SDS011;52970;46.752;17.108;2023-07-24T07:18:41;9.85;;;7.20;;
13102;SDS011;52970;46.752;17.108;2023-07-24T07:21:07;10.90;;;7.13;;
13102;SDS011;52970;46.752;17.108;2023-07-24T07:23:32;9.17;;;7.03;;
13102;SDS011;52970;46.752;17.108;2023-07-24T07:25:57;9.23;;;7.30;;
13102;SDS011;52970;46.752;17.108;2023-07-24T07:28:22;12.77;;;7.68;;
13102;SDS011;52970;46.752;17.108;2023-07-24T07:30:48;8.37;;;6.60;;
13102;SDS011;52970;46.752;17.108;2023-07-24T07:33:13;9.85;;;7.07;;
13102;SDS011;52970;46.752;17.108;2023-07-24T07:35:38;10.38;;;6.95;;
13102;SDS011;52970;46.752;17.108;2023-07-24T07:38:03;12.00;;;7.20;;
13102;SDS011;52970;46.752;17.108;2023-07-24T07:40:29;11.82;;;7.57;;
13102;SDS011;52970;46.752;17.108;2023-07-24T07:42:55;8.00;;;7.13;;
13102;SDS011;52970;46.752;17.108;2023-07-24T07:45:20;8.13;;;7.32;;
13102;SDS011;52970;46.752;17.108;2023-07-24T07:47:46;9.18;;;7.25;;
13102;SDS011;52970;46.752;17.108;2023-07-24T07:50:11;11.38;;;7.55;;
13102;SDS011;52970;46.752;17.108;2023-07-24T07:52:36;11.23;;;7.07;;
13102;SDS011;52970;46.752;17.108;2023-07-24T07:55:02;10.25;;;7.18;;
13102;SDS011;52970;46.752;17.108;2023-07-24T07:57:27;10.80;;;7.47;;
13102;SDS011;52970;46.752;17.108;2023-07-24T07:59:52;10.20;;;7.05;;
13102;SDS011;52970;46.752;17.108;2023-07-24T08:02:17;9.13;;;7.07;;
13102;SDS011;52970;46.752;17.108;2023-07-24T08:04:43;10.77;;;7.67;;
13102;SDS011;52970;46.752;17.108;2023-07-24T08:07:08;10.00;;;7.63;;
13102;SDS011;52970;46.752;17.108;2023-07-24T08:09:33;7.60;;;6.77;;
13102;SDS011;52970;46.752;17.108;2023-07-24T08:11:59;9.43;;;7.18;;
13102;SDS011;52970;46.752;17.108;2023-07-24T08:14:24;9.57;;;7.35;;
13102;SDS011;52970;46.752;17.108;2023-07-24T08:16:49;11.10;;;8.00;;
13102;SDS011;52970;46.752;17.108;2023-07-24T08:19:15;13.02;;;7.13;;
13102;SDS011;52970;46.752;17.108;2023-07-24T08:21:40;9.65;;;6.75;;
13102;SDS011;52970;46.752;17.108;2023-07-24T08:24:05;11.10;;;7.50;;
13102;SDS011;52970;46.752;17.108;2023-07-24T08:26:31;7.63;;;6.63;;
13102;SDS011;52970;46.752;17.108;2023-07-24T08:28:56;10.17;;;7.23;;
13102;SDS011;52970;46.752;17.108;2023-07-24T08:31:21;10.87;;;7.50;;
13102;SDS011;52970;46.752;17.108;2023-07-24T08:33:46;11.53;;;7.70;;
13102;SDS011;52970;46.752;17.108;2023-07-24T08:36:12;9.73;;;7.40;;
13102;SDS011;52970;46.752;17.108;2023-07-24T08:38:37;10.55;;;8.38;;
13102;SDS011;52970;46.752;17.108;2023-07-24T08:41:09;11.32;;;7.50;;
13102;SDS011;52970;46.752;17.108;2023-07-24T08:43:36;10.85;;;7.70;;
13102;SDS011;52970;46.752;17.108;2023-07-24T08:46:02;11.02;;;8.45;;
13102;SDS011;52970;46.752;17.108;2023-07-24T08:48:34;9.02;;;7.75;;
13102;SDS011;52970;46.752;17.108;2023-07-24T08:51:03;10.48;;;8.35;;
13102;SDS011;52970;46.752;17.108;2023-07-24T08:53:29;11.95;;;8.82;;
13102;SDS011;52970;46.752;17.108;2023-07-24T08:55:58;11.00;;;8.55;;
13102;SDS011;52970;46.752;17.108;2023-07-24T08:58:24;11.20;;;8.65;;
13102;SDS011;52970;46.752;17.108;2023-07-24T09:00:49;9.90;;;8.30;;
13102;SDS011;52970;46.752;17.108;2023-07-24T09:03:16;10.98;;;8.98;;
13102;SDS011;52970;46.752;17.108;2023-07-24T09:05:41;13.52;;;9.25;;
13102;SDS011;52970;46.752;17.108;2023-07-24T09:08:07;14.27;;;8.77;;
13102;SDS011;52970;46.752;17.108;2023-07-24T09:10:32;13.63;;;9.50;;
13102;SDS011;52970;46.752;17.108;2023-07-24T09:12:57;13.05;;;9.75;;
13102;SDS011;52970;46.752;17.108;2023-07-24T09:15:23;16.00;;;9.98;;
13102;SDS011;52970;46.752;17.108;2023-07-24T09:17:49;13.57;;;9.82;;
13102;SDS011;52970;46.752;17.108;2023-07-24T09:20:14;11.70;;;9.38;;
13102;SDS011;52970;46.752;17.108;2023-07-24T09:22:47;11.95;;;9.02;;
13102;SDS011;52970;46.752;17.108;2023-07-24T09:25:12;13.10;;;9.38;;
13102;SDS011;52970;46.752;17.108;2023-07-24T09:27:38;11.70;;;8.77;;
13102;SDS011;52970;46.752;17.108;2023-07-24T09:30:11;13.27;;;9.25;;
13102;SDS011;52970;46.752;17.108;2023-07-24T09:32:36;12.50;;;9.60;;
13102;SDS011;52970;46.752;17.108;2023-07-24T09:35:03;12.57;;;9.27;;
13102;SDS011;52970;46.752;17.108;2023-07-24T09:37:32;13.88;;;9.23;;
13102;SDS011;52970;46.752;17.108;2023-07-24T09:39:58;15.52;;;9.75;;
13102;SDS011;52970;46.752;17.108;2023-07-24T09:42:30;13.20;;;9.93;;
13102;SDS011;52970;46.752;17.108;2023-07-24T09:44:55;13.23;;;9.77;;
13102;SDS011;52970;46.752;17.108;2023-07-24T09:47:21;13.57;;;9.27;;
13102;SDS011;52970;46.752;17.108;2023-07-24T09:49:46;15.48;;;10.13;;
13102;SDS011;52970;46.752;17.108;2023-07-24T09:52:12;13.00;;;9.30;;
13102;SDS011;52970;46.752;17.108;2023-07-24T09:54:41;11.88;;;9.20;;
13102;SDS011;52970;46.752;17.108;2023-07-24T09:57:10;10.82;;;9.05;;
13102;SDS011;52970;46.752;17.108;2023-07-24T09:59:36;14.50;;;9.50;;
13102;SDS011;52970;46.752;17.108;2023-07-24T10:02:01;13.93;;;9.90;;
13102;SDS011;52970;46.752;17.108;2023-07-24T10:04:27;14.80;;;10.85;;
13102;SDS011;52970;46.752;17.108;2023-07-24T10:06:53;13.05;;;10.00;;
13102;SDS011;52970;46.752;17.108;2023-07-24T10:09:19;13.57;;;9.82;;
13102;SDS011;52970;46.752;17.108;2023-07-24T10:11:46;12.75;;;9.57;;
13102;SDS011;52970;46.752;17.108;2023-07-24T10:14:11;13.18;;;10.38;;
13102;SDS011;52970;46.752;17.108;2023-07-24T10:16:37;15.10;;;9.63;;
13102;SDS011;52970;46.752;17.108;2023-07-24T10:19:12;11.93;;;9.10;;
13102;SDS011;52970;46.752;17.108;2023-07-24T10:21:37;14.85;;;10.73;;
13102;SDS011;52970;46.752;17.108;2023-07-24T10:24:02;14.13;;;10.20;;
13102;SDS011;52970;46.752;17.108;2023-07-24T10:26:28;14.20;;;10.10;;
13102;SDS011;52970;46.752;17.108;2023-07-24T10:28:53;13.27;;;9.93;;
13102;SDS011;52970;46.752;17.108;2023-07-24T10:31:23;14.25;;;10.02;;
13102;SDS011;52970;46.752;17.108;2023-07-24T10:33:48;14.82;;;9.75;;
13102;SDS011;52970;46.752;17.108;2023-07-24T10:36:16;13.55;;;9.68;;
13102;SDS011;52970;46.752;17.108;2023-07-24T10:38:44;14.10;;;10.48;;
13102;SDS011;52970;46.752;17.108;2023-07-24T10:41:09;12.53;;;9.63;;
13102;SDS011;52970;46.752;17.108;2023-07-24T10:43:51;16.13;;;10.63;;
13102;SDS011;52970;46.752;17.108;2023-07-24T10:46:17;14.30;;;10.38;;
13102;SDS011;52970;46.752;17.108;2023-07-24T10:48:44;13.80;;;11.02;;
13102;SDS011;52970;46.752;17.108;2023-07-24T10:51:10;13.80;;;10.68;;
13102;SDS011;52970;46.752;17.108;2023-07-24T10:53:36;12.00;;;9.68;;
13102;SDS011;52970;46.752;17.108;2023-07-24T10:56:02;14.70;;;10.07;;
13102;SDS011;52970;46.752;17.108;2023-07-24T10:58:28;14.07;;;10.20;;
13102;SDS011;52970;46.752;17.108;2023-07-24T11:00:53;13.55;;;9.93;;
13102;SDS011;52970;46.752;17.108;2023-07-24T11:03:20;13.60;;;10.00;;
13102;SDS011;52970;46.752;17.108;2023-07-24T11:05:46;13.18;;;10.25;;
13102;SDS011;52970;46.752;17.108;2023-07-24T11:08:15;12.88;;;9.90;;
13102;SDS011;52970;46.752;17.108;2023-07-24T11:10:44;15.55;;;10.35;;
13102;SDS011;52970;46.752;17.108;2023-07-24T11:13:11;12.70;;;10.38;;
13102;SDS011;52970;46.752;17.108;2023-07-24T11:15:36;13.23;;;9.90;;
13102;SDS011;52970;46.752;17.108;2023-07-24T11:18:01;14.52;;;9.98;;
13102;SDS011;52970;46.752;17.108;2023-07-24T11:20:27;11.85;;;9.43;;
13102;SDS011;52970;46.752;17.108;2023-07-24T11:22:52;12.27;;;9.30;;
13102;SDS011;52970;46.752;17.108;2023-07-24T11:25:18;12.90;;;9.52;;
13102;SDS011;52970;46.752;17.108;2023-07-24T11:27:43;12.60;;;10.23;;
13102;SDS011;52970;46.752;17.108;2023-07-24T11:30:12;13.07;;;8.95;;
13102;SDS011;52970;46.752;17.108;2023-07-24T11:32:38;12.48;;;9.65;;
13102;SDS011;52970;46.752;17.108;2023-07-24T11:35:04;12.82;;;9.80;;
13102;SDS011;52970;46.752;17.108;2023-07-24T11:37:29;13.52;;;9.82;;
13102;SDS011;52970;46.752;17.108;2023-07-24T11:39:59;14.23;;;9.57;;
13102;SDS011;52970;46.752;17.108;2023-07-24T11:42:25;11.70;;;9.50;;
13102;SDS011;52970;46.752;17.108;2023-07-24T11:44:50;11.98;;;9.15;;
13102;SDS011;52970;46.752;17.108;2023-07-24T11:47:15;13.30;;;9.47;;
13102;SDS011;52970;46.752;17.108;2023-07-24T11:49:41;12.52;;;9.73;;
13102;SDS011;52970;46.752;17.108;2023-07-24T11:52:12;14.95;;;10.18;;
13102;SDS011;52970;46.752;17.108;2023-07-24T11:54:38;12.40;;;10.13;;
13102;SDS011;52970;46.752;17.108;2023-07-24T11:57:03;15.93;;;10.17;;
13102;SDS011;52970;46.752;17.108;2023-07-24T11:59:39;12.20;;;9.95;;
13102;SDS011;52970;46.752;17.108;2023-07-24T12:02:04;12.30;;;9.63;;
13102;SDS011;52970;46.752;17.108;2023-07-24T12:04:30;13.98;;;9.38;;
13102;SDS011;52970;46.752;17.108;2023-07-24T12:06:55;14.50;;;10.25;;
13102;SDS011;52970;46.752;17.108;2023-07-24T12:09:21;16.42;;;10.60;;
13102;SDS011;52970;46.752;17.108;2023-07-24T12:11:46;13.83;;;9.77;;
13102;SDS011;52970;46.752;17.108;2023-07-24T12:14:14;14.63;;;10.40;;
13102;SDS011;52970;46.752;17.108;2023-07-24T12:16:42;11.25;;;9.27;;
13102;SDS011;52970;46.752;17.108;2023-07-24T12:19:07;13.77;;;10.48;;
13102;SDS011;52970;46.752;17.108;2023-07-24T12:21:32;14.83;;;10.87;;
13102;SDS011;52970;46.752;17.108;2023-07-24T12:23:58;12.50;;;9.85;;
13102;SDS011;52970;46.752;17.108;2023-07-24T12:26:23;14.40;;;10.07;;
13102;SDS011;52970;46.752;17.108;2023-07-24T12:28:50;12.90;;;10.20;;
13102;SDS011;52970;46.752;17.108;2023-07-24T12:31:15;15.50;;;10.43;;
13102;SDS011;52970;46.752;17.108;2023-07-24T12:33:41;19.60;;;10.55;;
13102;SDS011;52970;46.752;17.108;2023-07-24T12:36:06;17.52;;;11.13;;
13102;SDS011;52970;46.752;17.108;2023-07-24T12:38:31;16.30;;;10.77;;
13102;SDS011;52970;46.752;17.108;2023-07-24T12:40:57;15.70;;;10.83;;
13102;SDS011;52970;46.752;17.108;2023-07-24T12:43:22;14.27;;;10.93;;
13102;SDS011;52970;46.752;17.108;2023-07-24T12:45:47;14.75;;;10.55;;
13102;SDS011;52970;46.752;17.108;2023-07-24T12:48:12;14.93;;;10.98;;
13102;SDS011;52970;46.752;17.108;2023-07-24T12:50:39;14.20;;;10.25;;
13102;SDS011;52970;46.752;17.108;2023-07-24T12:53:04;16.65;;;10.95;;
13102;SDS011;52970;46.752;17.108;2023-07-24T12:55:29;15.57;;;10.87;;
13102;SDS011;52970;46.752;17.108;2023-07-24T12:57:55;12.73;;;10.38;;
13102;SDS011;52970;46.752;17.108;2023-07-24T13:00:21;14.82;;;11.10;;
13102;SDS011;52970;46.752;17.108;2023-07-24T13:02:46;15.02;;;11.35;;
13102;SDS011;52970;46.752;17.108;2023-07-24T13:05:11;18.90;;;11.73;;
13102;SDS011;52970;46.752;17.108;2023-07-24T13:07:37;16.33;;;11.60;;
13102;SDS011;52970;46.752;17.108;2023-07-24T13:10:02;19.27;;;12.25;;
13102;SDS011;52970;46.752;17.108;2023-07-24T13:12:27;16.60;;;12.10;;
13102;SDS011;52970;46.752;17.108;2023-07-24T13:14:52;14.73;;;11.60;;
13102;SDS011;52970;46.752;17.108;2023-07-24T13:17:18;16.40;;;12.07;;
13102;SDS011;52970;46.752;17.108;2023-07-24T13:19:43;15.10;;;11.10;;
13102;SDS011;52970;46.752;17.108;2023-07-24T13:22:08;15.50;;;11.17;;
13102;SDS011;52970;46.752;17.108;2023-07-24T13:24:33;15.57;;;10.93;;
13102;SDS011;52970;46.752;17.108;2023-07-24T13:26:59;13.10;;;10.40;;
13102;SDS011;52970;46.752;17.108;2023-07-24T13:29:24;16.30;;;12.15;;
13102;SDS011;52970;46.752;17.108;2023-07-24T13:31:50;16.20;;;11.48;;
13102;SDS011;52970;46.752;17.108;2023-07-24T13:34:16;16.20;;;11.57;;
13102;SDS011;52970;46.752;17.108;2023-07-24T13:36:44;14.40;;;11.13;;
13102;SDS011;52970;46.752;17.108;2023-07-24T13:39:09;17.05;;;10.80;;
13102;SDS011;52970;46.752;17.108;2023-07-24T13:41:35;16.10;;;11.27;;
13102;SDS011;52970;46.752;17.108;2023-07-24T13:44:01;14.77;;;11.13;;
13102;SDS011;52970;46.752;17.108;2023-07-24T13:46:26;14.82;;;10.80;;
13102;SDS011;52970;46.752;17.108;2023-07-24T13:48:52;15.45;;;11.07;;
13102;SDS011;52970;46.752;17.108;2023-07-24T13:51:17;15.40;;;10.32;;
13102;SDS011;52970;46.752;17.108;2023-07-24T13:53:42;14.93;;;10.18;;
13102;SDS011;52970;46.752;17.108;2023-07-24T13:56:08;13.65;;;10.48;;
13102;SDS011;52970;46.752;17.108;2023-07-24T13:58:34;15.82;;;11.07;;
13102;SDS011;52970;46.752;17.108;2023-07-24T14:01:00;14.57;;;9.97;;
13102;SDS011;52970;46.752;17.108;2023-07-24T14:03:25;15.95;;;10.85;;
13102;SDS011;52970;46.752;17.108;2023-07-24T14:05:54;13.75;;;10.00;;
13102;SDS011;52970;46.752;17.108;2023-07-24T14:08:19;11.30;;;9.00;;
13102;SDS011;52970;46.752;17.108;2023-07-24T14:10:44;15.88;;;9.93;;
13102;SDS011;52970;46.752;17.108;2023-07-24T14:13:10;14.80;;;9.60;;
13102;SDS011;52970;46.752;17.108;2023-07-24T14:15:35;15.00;;;9.73;;
13102;SDS011;52970;46.752;17.108;2023-07-24T14:18:00;13.88;;;9.60;;
13102;SDS011;52970;46.752;17.108;2023-07-24T14:20:25;13.23;;;9.33;;